sensor_id;sensor_type;location;lat;lon;timestamp;P1;durP1;ratioP1;P2;durP2;ratioP2
60873;SDS011;46715;40.642;-7.920;2023-10-13T00:01:06;11.52;;;6.15;;
60873;SDS011;46715;40.642;-7.920;2023-10-13T00:03:07;10.18;;;6.18;;
60873;SDS011;46715;40.642;-7.920;2023-10-13T00:05:15;11.00;;;5.85;;
60873;SDS011;46715;40.642;-7.920;2023-10-13T00:07:16;13.48;;;6.32;;
60873;SDS011;46715;40.642;-7.920;2023-10-13T00:09:18;11.40;;;5.47;;
60873;SDS011;46715;40.642;-7.920;2023-10-13T00:11:20;12.80;;;6.47;;
60873;SDS011;46715;40.642;-7.920;2023-10-13T00:15:22;14.35;;;6.22;;
60873;SDS011;46715;40.642;-7.920;2023-10-13T00:17:28;16.73;;;6.13;;
60873;SDS011;46715;40.642;-7.920;2023-10-13T00:19:31;11.93;;;5.23;;
60873;SDS011;46715;40.642;-7.920;2023-10-13T00:21:59;13.98;;;5.82;;
60873;SDS011;46715;40.642;-7.920;2023-10-13T00:24:09;11.18;;;5.68;;
60873;SDS011;46715;40.642;-7.920;2023-10-13T00:26:14;10.48;;;5.90;;
60873;SDS011;46715;40.642;-7.920;2023-10-13T00:28:21;11.55;;;5.70;;
60873;SDS011;46715;40.642;-7.920;2023-10-13T00:30:25;11.00;;;5.80;;
60873;SDS011;46715;40.642;-7.920;2023-10-13T00:32:35;10.10;;;5.68;;
60873;SDS011;46715;40.642;-7.920;2023-10-13T00:34:39;10.23;;;6.20;;
60873;SDS011;46715;40.642;-7.920;2023-10-13T00:36:40;17.40;;;6.23;;
60873;SDS011;46715;40.642;-7.920;2023-10-13T00:39:00;12.05;;;5.80;;
60873;SDS011;46715;40.642;-7.920;2023-10-13T00:41:01;13.13;;;5.83;;
60873;SDS011;46715;40.642;-7.920;2023-10-13T00:43:07;13.65;;;5.82;;
60873;SDS011;46715;40.642;-7.920;2023-10-13T00:45:21;15.77;;;6.10;;
60873;SDS011;46715;40.642;-7.920;2023-10-13T00:47:23;12.20;;;6.20;;
60873;SDS011;46715;40.642;-7.920;2023-10-13T00:49:36;11.02;;;5.60;;
60873;SDS011;46715;40.642;-7.920;2023-10-13T00:51:40;7.10;;;5.40;;
60873;SDS011;46715;40.642;-7.920;2023-10-13T00:53:47;11.13;;;5.65;;
60873;SDS011;46715;40.642;-7.920;2023-10-13T00:55:48;10.20;;;5.68;;
60873;SDS011;46715;40.642;-7.920;2023-10-13T00:57:52;7.87;;;5.77;;
60873;SDS011;46715;40.642;-7.920;2023-10-13T00:59:57;9.73;;;5.50;;
60873;SDS011;46715;40.642;-7.920;2023-10-13T01:01:59;14.15;;;5.72;;
60873;SDS011;46715;40.642;-7.920;2023-10-13T01:04:20;10.07;;;5.65;;
60873;SDS011;46715;40.642;-7.920;2023-10-13T01:06:23;8.25;;;5.68;;
60873;SDS011;46715;40.642;-7.920;2023-10-13T01:08:36;12.88;;;6.10;;
60873;SDS011;46715;40.642;-7.920;2023-10-13T01:10:38;13.88;;;5.85;;
60873;SDS011;46715;40.642;-7.920;2023-10-13T01:12:39;11.90;;;5.90;;
60873;SDS011;46715;40.642;-7.920;2023-10-13T01:14:44;8.80;;;5.43;;
60873;SDS011;46715;40.642;-7.920;2023-10-13T01:16:46;10.73;;;5.72;;
60873;SDS011;46715;40.642;-7.920;2023-10-13T01:18:53;11.60;;;4.70;;
60873;SDS011;46715;40.642;-7.920;2023-10-13T01:20:59;11.70;;;5.88;;
60873;SDS011;46715;40.642;-7.920;2023-10-13T01:23:03;12.00;;;5.53;;
60873;SDS011;46715;40.642;-7.920;2023-10-13T01:25:05;11.25;;;5.38;;
60873;SDS011;46715;40.642;-7.920;2023-10-13T01:27:12;10.73;;;5.40;;
60873;SDS011;46715;40.642;-7.920;2023-10-13T01:29:20;9.50;;;5.07;;
60873;SDS011;46715;40.642;-7.920;2023-10-13T01:31:26;13.57;;;5.82;;
60873;SDS011;46715;40.642;-7.920;2023-10-13T01:33:28;7.97;;;4.53;;
60873;SDS011;46715;40.642;-7.920;2023-10-13T01:35:29;8.43;;;5.60;;
60873;SDS011;46715;40.642;-7.920;2023-10-13T01:37:37;13.77;;;5.55;;
60873;SDS011;46715;40.642;-7.920;2023-10-13T01:39:38;12.97;;;5.87;;
60873;SDS011;46715;40.642;-7.920;2023-10-13T01:41:38;10.57;;;5.60;;
60873;SDS011;46715;40.642;-7.920;2023-10-13T01:43:39;10.80;;;6.03;;
60873;SDS011;46715;40.642;-7.920;2023-10-13T01:45:40;11.32;;;5.97;;
60873;SDS011;46715;40.642;-7.920;2023-10-13T01:47:49;8.48;;;5.13;;
60873;SDS011;46715;40.642;-7.920;2023-10-13T01:49:51;19.40;;;6.07;;
60873;SDS011;46715;40.642;-7.920;2023-10-13T01:51:52;9.40;;;5.88;;
60873;SDS011;46715;40.642;-7.920;2023-10-13T01:53:54;13.52;;;5.63;;
60873;SDS011;46715;40.642;-7.920;2023-10-13T01:55:58;8.82;;;5.68;;
60873;SDS011;46715;40.642;-7.920;2023-10-13T01:57:58;8.60;;;5.73;;
60873;SDS011;46715;40.642;-7.920;2023-10-13T02:00:00;11.13;;;6.47;;
60873;SDS011;46715;40.642;-7.920;2023-10-13T02:02:12;12.73;;;5.97;;
60873;SDS011;46715;40.642;-7.920;2023-10-13T02:04:13;11.00;;;5.70;;
60873;SDS011;46715;40.642;-7.920;2023-10-13T02:06:14;11.10;;;5.43;;
60873;SDS011;46715;40.642;-7.920;2023-10-13T02:08:24;9.85;;;5.40;;
60873;SDS011;46715;40.642;-7.920;2023-10-13T02:10:25;11.23;;;5.20;;
60873;SDS011;46715;40.642;-7.920;2023-10-13T02:12:28;7.55;;;5.57;;
60873;SDS011;46715;40.642;-7.920;2023-10-13T02:14:45;11.05;;;5.72;;
60873;SDS011;46715;40.642;-7.920;2023-10-13T02:16:45;7.37;;;5.17;;
60873;SDS011;46715;40.642;-7.920;2023-10-13T02:19:11;8.93;;;5.40;;
60873;SDS011;46715;40.642;-7.920;2023-10-13T02:21:16;9.43;;;5.53;;
60873;SDS011;46715;40.642;-7.920;2023-10-13T02:23:17;7.05;;;5.28;;
60873;SDS011;46715;40.642;-7.920;2023-10-13T02:25:19;14.32;;;5.22;;
60873;SDS011;46715;40.642;-7.920;2023-10-13T02:27:35;11.02;;;5.65;;
60873;SDS011;46715;40.642;-7.920;2023-10-13T02:29:44;13.02;;;5.80;;
60873;SDS011;46715;40.642;-7.920;2023-10-13T02:31:49;11.63;;;5.18;;
60873;SDS011;46715;40.642;-7.920;2023-10-13T02:33:58;9.90;;;5.70;;
60873;SDS011;46715;40.642;-7.920;2023-10-13T02:36:01;9.45;;;5.28;;
60873;SDS011;46715;40.642;-7.920;2023-10-13T02:38:06;12.70;;;5.60;;
60873;SDS011;46715;40.642;-7.920;2023-10-13T02:40:11;8.20;;;5.20;;
60873;SDS011;46715;40.642;-7.920;2023-10-13T02:42:12;13.30;;;5.53;;
60873;SDS011;46715;40.642;-7.920;2023-10-13T02:44:23;8.82;;;4.43;;
60873;SDS011;46715;40.642;-7.920;2023-10-13T02:46:27;7.78;;;4.68;;
60873;SDS011;46715;40.642;-7.920;2023-10-13T02:48:30;9.73;;;4.68;;
60873;SDS011;46715;40.642;-7.920;2023-10-13T02:50:40;8.45;;;4.93;;
60873;SDS011;46715;40.642;-7.920;2023-10-13T02:52:45;12.95;;;5.28;;
60873;SDS011;46715;40.642;-7.920;2023-10-13T02:54:50;8.55;;;4.95;;
60873;SDS011;46715;40.642;-7.920;2023-10-13T02:56:51;9.50;;;5.43;;
60873;SDS011;46715;40.642;-7.920;2023-10-13T02:58:57;21.50;;;5.40;;
60873;SDS011;46715;40.642;-7.920;2023-10-13T03:01:05;7.85;;;4.70;;
60873;SDS011;46715;40.642;-7.920;2023-10-13T03:03:27;9.02;;;5.30;;
60873;SDS011;46715;40.642;-7.920;2023-10-13T03:05:33;7.28;;;4.95;;
60873;SDS011;46715;40.642;-7.920;2023-10-13T03:07:36;11.18;;;5.30;;
60873;SDS011;46715;40.642;-7.920;2023-10-13T03:09:37;9.38;;;4.95;;
60873;SDS011;46715;40.642;-7.920;2023-10-13T03:11:37;9.45;;;5.47;;
60873;SDS011;46715;40.642;-7.920;2023-10-13T03:13:40;9.23;;;4.93;;
60873;SDS011;46715;40.642;-7.920;2023-10-13T03:15:45;7.57;;;4.38;;
60873;SDS011;46715;40.642;-7.920;2023-10-13T03:17:47;10.35;;;5.40;;
60873;SDS011;46715;40.642;-7.920;2023-10-13T03:19:48;11.07;;;5.17;;
60873;SDS011;46715;40.642;-7.920;2023-10-13T03:21:52;8.60;;;5.28;;
60873;SDS011;46715;40.642;-7.920;2023-10-13T03:24:00;10.07;;;4.88;;
60873;SDS011;46715;40.642;-7.920;2023-10-13T03:26:08;11.18;;;5.90;;
60873;SDS011;46715;40.642;-7.920;2023-10-13T03:28:10;8.18;;;4.55;;
60873;SDS011;46715;40.642;-7.920;2023-10-13T03:42:53;10.65;;;6.05;;
60873;SDS011;46715;40.642;-7.920;2023-10-13T03:45:04;8.98;;;5.38;;
60873;SDS011;46715;40.642;-7.920;2023-10-13T03:47:10;10.02;;;5.60;;
60873;SDS011;46715;40.642;-7.920;2023-10-13T03:49:18;9.70;;;5.75;;
60873;SDS011;46715;40.642;-7.920;2023-10-13T03:51:22;10.25;;;5.72;;
60873;SDS011;46715;40.642;-7.920;2023-10-13T03:53:31;11.75;;;5.88;;
60873;SDS011;46715;40.642;-7.920;2023-10-13T03:55:34;11.07;;;5.65;;
60873;SDS011;46715;40.642;-7.920;2023-10-13T03:57:35;9.73;;;5.93;;
60873;SDS011;46715;40.642;-7.920;2023-10-13T03:59:38;11.95;;;5.93;;
60873;SDS011;46715;40.642;-7.920;2023-10-13T04:01:40;13.88;;;6.93;;
60873;SDS011;46715;40.642;-7.920;2023-10-13T04:03:43;9.55;;;6.40;;
60873;SDS011;46715;40.642;-7.920;2023-10-13T04:06:06;10.00;;;6.03;;
60873;SDS011;46715;40.642;-7.920;2023-10-13T04:08:06;10.50;;;5.68;;
60873;SDS011;46715;40.642;-7.920;2023-10-13T04:10:26;9.70;;;6.07;;
60873;SDS011;46715;40.642;-7.920;2023-10-13T04:12:46;10.80;;;5.85;;
60873;SDS011;46715;40.642;-7.920;2023-10-13T04:15:05;9.25;;;5.80;;
60873;SDS011;46715;40.642;-7.920;2023-10-13T04:17:06;8.55;;;6.13;;
60873;SDS011;46715;40.642;-7.920;2023-10-13T04:19:14;14.77;;;6.32;;
60873;SDS011;46715;40.642;-7.920;2023-10-13T04:21:22;9.48;;;6.43;;
60873;SDS011;46715;40.642;-7.920;2023-10-13T04:23:38;11.63;;;6.22;;
60873;SDS011;46715;40.642;-7.920;2023-10-13T04:25:59;15.48;;;6.18;;
60873;SDS011;46715;40.642;-7.920;2023-10-13T04:30:12;12.40;;;6.45;;
60873;SDS011;46715;40.642;-7.920;2023-10-13T04:32:24;10.25;;;5.80;;
60873;SDS011;46715;40.642;-7.920;2023-10-13T04:34:28;12.30;;;6.30;;
60873;SDS011;46715;40.642;-7.920;2023-10-13T04:36:38;16.77;;;5.68;;
60873;SDS011;46715;40.642;-7.920;2023-10-13T04:38:46;7.65;;;5.78;;
60873;SDS011;46715;40.642;-7.920;2023-10-13T04:41:06;10.70;;;5.95;;
60873;SDS011;46715;40.642;-7.920;2023-10-13T04:43:22;11.15;;;6.25;;
60873;SDS011;46715;40.642;-7.920;2023-10-13T04:45:58;14.70;;;6.45;;
60873;SDS011;46715;40.642;-7.920;2023-10-13T04:48:14;10.18;;;5.93;;
60873;SDS011;46715;40.642;-7.920;2023-10-13T04:50:24;13.52;;;5.93;;
60873;SDS011;46715;40.642;-7.920;2023-10-13T04:52:35;8.45;;;6.22;;
60873;SDS011;46715;40.642;-7.920;2023-10-13T04:54:51;14.25;;;6.38;;
60873;SDS011;46715;40.642;-7.920;2023-10-13T04:56:54;19.15;;;6.75;;
60873;SDS011;46715;40.642;-7.920;2023-10-13T04:59:01;10.45;;;6.13;;
60873;SDS011;46715;40.642;-7.920;2023-10-13T05:01:36;14.73;;;6.72;;
60873;SDS011;46715;40.642;-7.920;2023-10-13T05:03:59;10.35;;;5.93;;
60873;SDS011;46715;40.642;-7.920;2023-10-13T05:06:05;11.77;;;5.95;;
60873;SDS011;46715;40.642;-7.920;2023-10-13T05:08:25;15.15;;;6.80;;
60873;SDS011;46715;40.642;-7.920;2023-10-13T05:10:44;11.82;;;6.00;;
60873;SDS011;46715;40.642;-7.920;2023-10-13T05:13:03;13.55;;;6.35;;
60873;SDS011;46715;40.642;-7.920;2023-10-13T05:15:23;11.80;;;6.10;;
60873;SDS011;46715;40.642;-7.920;2023-10-13T05:17:42;15.25;;;6.72;;
60873;SDS011;46715;40.642;-7.920;2023-10-13T05:20:01;9.90;;;5.63;;
60873;SDS011;46715;40.642;-7.920;2023-10-13T05:22:21;9.95;;;6.72;;
60873;SDS011;46715;40.642;-7.920;2023-10-13T05:24:40;10.32;;;5.35;;
60873;SDS011;46715;40.642;-7.920;2023-10-13T05:26:59;11.65;;;6.38;;
60873;SDS011;46715;40.642;-7.920;2023-10-13T05:29:19;14.13;;;5.95;;
60873;SDS011;46715;40.642;-7.920;2023-10-13T05:31:37;10.43;;;6.00;;
60873;SDS011;46715;40.642;-7.920;2023-10-13T05:33:57;12.40;;;5.93;;
60873;SDS011;46715;40.642;-7.920;2023-10-13T05:36:16;11.45;;;6.07;;
60873;SDS011;46715;40.642;-7.920;2023-10-13T05:38:35;10.52;;;6.00;;
60873;SDS011;46715;40.642;-7.920;2023-10-13T05:40:58;12.35;;;6.13;;
60873;SDS011;46715;40.642;-7.920;2023-10-13T05:43:19;9.32;;;5.93;;
60873;SDS011;46715;40.642;-7.920;2023-10-13T05:45:38;10.20;;;5.90;;
60873;SDS011;46715;40.642;-7.920;2023-10-13T05:48:11;11.07;;;6.13;;
60873;SDS011;46715;40.642;-7.920;2023-10-13T05:50:14;11.27;;;6.28;;
60873;SDS011;46715;40.642;-7.920;2023-10-13T05:52:20;10.63;;;6.65;;
60873;SDS011;46715;40.642;-7.920;2023-10-13T05:54:41;9.43;;;6.15;;
60873;SDS011;46715;40.642;-7.920;2023-10-13T05:57:05;12.90;;;6.47;;
60873;SDS011;46715;40.642;-7.920;2023-10-13T05:59:24;12.00;;;6.25;;
60873;SDS011;46715;40.642;-7.920;2023-10-13T06:01:43;11.77;;;6.30;;
60873;SDS011;46715;40.642;-7.920;2023-10-13T06:04:02;16.48;;;6.55;;
60873;SDS011;46715;40.642;-7.920;2023-10-13T06:06:22;17.65;;;6.60;;
60873;SDS011;46715;40.642;-7.920;2023-10-13T06:08:41;12.27;;;6.70;;
60873;SDS011;46715;40.642;-7.920;2023-10-13T06:11:01;13.73;;;6.10;;
60873;SDS011;46715;40.642;-7.920;2023-10-13T06:13:21;10.82;;;5.95;;
60873;SDS011;46715;40.642;-7.920;2023-10-13T06:15:41;13.50;;;6.07;;
60873;SDS011;46715;40.642;-7.920;2023-10-13T06:18:00;10.45;;;6.30;;
60873;SDS011;46715;40.642;-7.920;2023-10-13T06:20:19;10.20;;;6.63;;
60873;SDS011;46715;40.642;-7.920;2023-10-13T06:22:38;10.77;;;6.03;;
60873;SDS011;46715;40.642;-7.920;2023-10-13T06:24:58;12.60;;;6.35;;
60873;SDS011;46715;40.642;-7.920;2023-10-13T06:27:17;12.85;;;6.68;;
60873;SDS011;46715;40.642;-7.920;2023-10-13T06:29:36;10.25;;;6.72;;
60873;SDS011;46715;40.642;-7.920;2023-10-13T06:31:37;12.07;;;6.73;;
60873;SDS011;46715;40.642;-7.920;2023-10-13T06:33:38;11.63;;;6.70;;
60873;SDS011;46715;40.642;-7.920;2023-10-13T06:35:51;11.75;;;6.53;;
60873;SDS011;46715;40.642;-7.920;2023-10-13T06:37:56;12.70;;;6.90;;
60873;SDS011;46715;40.642;-7.920;2023-10-13T06:40:01;9.60;;;6.30;;
60873;SDS011;46715;40.642;-7.920;2023-10-13T06:42:07;10.63;;;6.80;;
60873;SDS011;46715;40.642;-7.920;2023-10-13T06:44:08;15.87;;;6.73;;
60873;SDS011;46715;40.642;-7.920;2023-10-13T06:46:15;13.38;;;6.60;;
60873;SDS011;46715;40.642;-7.920;2023-10-13T06:48:24;9.07;;;6.10;;
60873;SDS011;46715;40.642;-7.920;2023-10-13T06:50:25;10.75;;;6.35;;
60873;SDS011;46715;40.642;-7.920;2023-10-13T06:52:26;13.00;;;6.70;;
60873;SDS011;46715;40.642;-7.920;2023-10-13T06:54:32;10.32;;;6.40;;
60873;SDS011;46715;40.642;-7.920;2023-10-13T06:56:37;12.40;;;6.43;;
60873;SDS011;46715;40.642;-7.920;2023-10-13T06:58:40;11.07;;;6.28;;
60873;SDS011;46715;40.642;-7.920;2023-10-13T07:00:43;14.18;;;6.60;;
60873;SDS011;46715;40.642;-7.920;2023-10-13T07:02:59;14.57;;;6.32;;
60873;SDS011;46715;40.642;-7.920;2023-10-13T07:05:20;13.50;;;6.40;;
60873;SDS011;46715;40.642;-7.920;2023-10-13T07:07:22;13.73;;;6.93;;
60873;SDS011;46715;40.642;-7.920;2023-10-13T07:09:23;11.45;;;6.85;;
60873;SDS011;46715;40.642;-7.920;2023-10-13T07:11:36;12.95;;;6.55;;
60873;SDS011;46715;40.642;-7.920;2023-10-13T07:13:43;10.13;;;6.88;;
60873;SDS011;46715;40.642;-7.920;2023-10-13T07:15:50;9.20;;;6.43;;
60873;SDS011;46715;40.642;-7.920;2023-10-13T07:17:51;15.55;;;6.30;;
60873;SDS011;46715;40.642;-7.920;2023-10-13T07:19:56;14.30;;;7.10;;
60873;SDS011;46715;40.642;-7.920;2023-10-13T07:22:06;16.05;;;6.68;;
60873;SDS011;46715;40.642;-7.920;2023-10-13T07:24:22;15.93;;;6.78;;
60873;SDS011;46715;40.642;-7.920;2023-10-13T07:26:23;19.13;;;8.02;;
60873;SDS011;46715;40.642;-7.920;2023-10-13T07:28:26;15.40;;;7.43;;
60873;SDS011;46715;40.642;-7.920;2023-10-13T07:30:30;14.73;;;7.28;;
60873;SDS011;46715;40.642;-7.920;2023-10-13T07:32:31;11.10;;;6.63;;
60873;SDS011;46715;40.642;-7.920;2023-10-13T07:34:34;15.88;;;7.65;;
60873;SDS011;46715;40.642;-7.920;2023-10-13T07:36:36;21.75;;;7.40;;
60873;SDS011;46715;40.642;-7.920;2023-10-13T07:38:40;15.43;;;7.28;;
60873;SDS011;46715;40.642;-7.920;2023-10-13T07:40:43;11.30;;;7.55;;
60873;SDS011;46715;40.642;-7.920;2023-10-13T07:43:07;14.88;;;7.32;;
60873;SDS011;46715;40.642;-7.920;2023-10-13T07:45:11;19.45;;;10.65;;
60873;SDS011;46715;40.642;-7.920;2023-10-13T07:49:14;18.38;;;12.43;;
60873;SDS011;46715;40.642;-7.920;2023-10-13T07:51:15;19.02;;;9.40;;
60873;SDS011;46715;40.642;-7.920;2023-10-13T07:53:16;18.50;;;7.10;;
60873;SDS011;46715;40.642;-7.920;2023-10-13T07:55:22;12.95;;;6.80;;
60873;SDS011;46715;40.642;-7.920;2023-10-13T07:57:23;16.33;;;7.10;;
60873;SDS011;46715;40.642;-7.920;2023-10-13T07:59:30;16.42;;;7.15;;
60873;SDS011;46715;40.642;-7.920;2023-10-13T08:01:31;18.50;;;7.88;;
60873;SDS011;46715;40.642;-7.920;2023-10-13T08:03:35;17.15;;;7.57;;
60873;SDS011;46715;40.642;-7.920;2023-10-13T08:05:51;17.85;;;7.93;;
60873;SDS011;46715;40.642;-7.920;2023-10-13T08:08:10;13.32;;;7.15;;
60873;SDS011;46715;40.642;-7.920;2023-10-13T08:10:14;17.42;;;8.02;;
60873;SDS011;46715;40.642;-7.920;2023-10-13T08:12:43;17.73;;;8.95;;
60873;SDS011;46715;40.642;-7.920;2023-10-13T08:14:48;13.35;;;7.85;;
60873;SDS011;46715;40.642;-7.920;2023-10-13T08:16:51;12.50;;;7.67;;
60873;SDS011;46715;40.642;-7.920;2023-10-13T08:18:55;15.23;;;7.25;;
60873;SDS011;46715;40.642;-7.920;2023-10-13T08:21:17;16.48;;;7.90;;
60873;SDS011;46715;40.642;-7.920;2023-10-13T08:23:23;12.88;;;6.53;;
60873;SDS011;46715;40.642;-7.920;2023-10-13T08:25:34;18.45;;;7.55;;
60873;SDS011;46715;40.642;-7.920;2023-10-13T08:27:54;21.48;;;7.90;;
60873;SDS011;46715;40.642;-7.920;2023-10-13T08:30:26;19.20;;;7.97;;
60873;SDS011;46715;40.642;-7.920;2023-10-13T08:32:29;15.40;;;8.05;;
60873;SDS011;46715;40.642;-7.920;2023-10-13T08:36:43;14.02;;;6.82;;
60873;SDS011;46715;40.642;-7.920;2023-10-13T08:38:45;20.10;;;7.43;;
60873;SDS011;46715;40.642;-7.920;2023-10-13T08:40:57;27.77;;;11.13;;
60873;SDS011;46715;40.642;-7.920;2023-10-13T08:43:18;27.52;;;13.82;;
60873;SDS011;46715;40.642;-7.920;2023-10-13T08:45:19;34.17;;;14.30;;
60873;SDS011;46715;40.642;-7.920;2023-10-13T08:47:25;22.00;;;12.60;;
60873;SDS011;46715;40.642;-7.920;2023-10-13T08:49:36;29.00;;;13.27;;
60873;SDS011;46715;40.642;-7.920;2023-10-13T08:51:40;25.35;;;11.75;;
60873;SDS011;46715;40.642;-7.920;2023-10-13T08:54:05;24.48;;;12.95;;
60873;SDS011;46715;40.642;-7.920;2023-10-13T08:56:19;30.60;;;14.00;;
60873;SDS011;46715;40.642;-7.920;2023-10-13T08:58:37;33.75;;;15.00;;
60873;SDS011;46715;40.642;-7.920;2023-10-13T09:00:53;28.40;;;14.95;;
60873;SDS011;46715;40.642;-7.920;2023-10-13T09:03:11;31.77;;;15.48;;
60873;SDS011;46715;40.642;-7.920;2023-10-13T09:05:38;21.02;;;14.25;;
60873;SDS011;46715;40.642;-7.920;2023-10-13T09:07:46;20.55;;;14.65;;
60873;SDS011;46715;40.642;-7.920;2023-10-13T09:09:49;22.25;;;15.60;;
60873;SDS011;46715;40.642;-7.920;2023-10-13T09:11:55;32.15;;;17.50;;
60873;SDS011;46715;40.642;-7.920;2023-10-13T09:14:12;27.85;;;16.35;;
60873;SDS011;46715;40.642;-7.920;2023-10-13T09:16:33;30.25;;;17.60;;
60873;SDS011;46715;40.642;-7.920;2023-10-13T09:18:49;27.55;;;16.60;;
60873;SDS011;46715;40.642;-7.920;2023-10-13T09:20:58;20.25;;;13.25;;
60873;SDS011;46715;40.642;-7.920;2023-10-13T09:23:19;15.82;;;9.73;;
60873;SDS011;46715;40.642;-7.920;2023-10-13T09:25:32;16.00;;;9.82;;
60873;SDS011;46715;40.642;-7.920;2023-10-13T09:27:58;16.75;;;9.02;;
60873;SDS011;46715;40.642;-7.920;2023-10-13T09:30:03;18.60;;;7.82;;
60873;SDS011;46715;40.642;-7.920;2023-10-13T09:32:18;12.07;;;7.07;;
60873;SDS011;46715;40.642;-7.920;2023-10-13T09:34:21;12.07;;;7.20;;
60873;SDS011;46715;40.642;-7.920;2023-10-13T09:36:29;17.48;;;7.68;;
60873;SDS011;46715;40.642;-7.920;2023-10-13T09:38:33;18.88;;;8.82;;
60873;SDS011;46715;40.642;-7.920;2023-10-13T09:40:35;13.30;;;6.40;;
60873;SDS011;46715;40.642;-7.920;2023-10-13T09:42:38;14.40;;;7.65;;
60873;SDS011;46715;40.642;-7.920;2023-10-13T09:44:41;15.75;;;8.20;;
60873;SDS011;46715;40.642;-7.920;2023-10-13T09:46:50;18.80;;;8.05;;
60873;SDS011;46715;40.642;-7.920;2023-10-13T09:48:56;25.38;;;10.82;;
60873;SDS011;46715;40.642;-7.920;2023-10-13T09:51:12;17.33;;;9.50;;
60873;SDS011;46715;40.642;-7.920;2023-10-13T09:53:14;15.57;;;8.52;;
60873;SDS011;46715;40.642;-7.920;2023-10-13T09:56:01;14.02;;;7.40;;
60873;SDS011;46715;40.642;-7.920;2023-10-13T09:57:47;16.55;;;8.25;;
60873;SDS011;46715;40.642;-7.920;2023-10-13T10:00:00;15.20;;;9.95;;
60873;SDS011;46715;40.642;-7.920;2023-10-13T10:02:11;18.20;;;8.25;;
60873;SDS011;46715;40.642;-7.920;2023-10-13T10:04:19;17.40;;;8.63;;
60873;SDS011;46715;40.642;-7.920;2023-10-13T10:06:23;12.25;;;8.65;;
60873;SDS011;46715;40.642;-7.920;2023-10-13T10:08:29;18.83;;;9.80;;
60873;SDS011;46715;40.642;-7.920;2023-10-13T10:10:56;19.17;;;9.95;;
60873;SDS011;46715;40.642;-7.920;2023-10-13T10:13:21;17.45;;;8.77;;
60873;SDS011;46715;40.642;-7.920;2023-10-13T10:15:35;17.17;;;8.82;;
60873;SDS011;46715;40.642;-7.920;2023-10-13T10:17:46;21.20;;;11.48;;
60873;SDS011;46715;40.642;-7.920;2023-10-13T10:19:50;17.05;;;9.70;;
60873;SDS011;46715;40.642;-7.920;2023-10-13T10:22:03;17.10;;;9.20;;
60873;SDS011;46715;40.642;-7.920;2023-10-13T10:24:17;20.98;;;9.82;;
60873;SDS011;46715;40.642;-7.920;2023-10-13T10:26:30;13.77;;;9.30;;
60873;SDS011;46715;40.642;-7.920;2023-10-13T10:28:41;21.80;;;10.25;;
60873;SDS011;46715;40.642;-7.920;2023-10-13T10:30:43;31.10;;;12.40;;
60873;SDS011;46715;40.642;-7.920;2023-10-13T10:32:44;27.08;;;12.82;;
60873;SDS011;46715;40.642;-7.920;2023-10-13T10:34:49;30.45;;;14.30;;
60873;SDS011;46715;40.642;-7.920;2023-10-13T10:36:55;33.55;;;14.68;;
60873;SDS011;46715;40.642;-7.920;2023-10-13T10:38:58;29.40;;;14.18;;
60873;SDS011;46715;40.642;-7.920;2023-10-13T10:41:04;25.10;;;13.98;;
60873;SDS011;46715;40.642;-7.920;2023-10-13T10:43:05;28.38;;;14.82;;
60873;SDS011;46715;40.642;-7.920;2023-10-13T10:45:09;28.02;;;14.05;;
60873;SDS011;46715;40.642;-7.920;2023-10-13T10:47:12;26.05;;;15.27;;
60873;SDS011;46715;40.642;-7.920;2023-10-13T10:49:36;33.83;;;17.77;;
60873;SDS011;46715;40.642;-7.920;2023-10-13T10:51:40;32.63;;;16.83;;
60873;SDS011;46715;40.642;-7.920;2023-10-13T10:53:45;28.40;;;16.20;;
60873;SDS011;46715;40.642;-7.920;2023-10-13T10:55:46;28.52;;;16.48;;
60873;SDS011;46715;40.642;-7.920;2023-10-13T10:57:47;36.63;;;17.23;;
60873;SDS011;46715;40.642;-7.920;2023-10-13T11:02:12;28.88;;;15.07;;
60873;SDS011;46715;40.642;-7.920;2023-10-13T11:04:18;32.63;;;16.83;;
60873;SDS011;46715;40.642;-7.920;2023-10-13T11:06:27;27.83;;;17.35;;
60873;SDS011;46715;40.642;-7.920;2023-10-13T11:08:28;33.80;;;16.77;;
60873;SDS011;46715;40.642;-7.920;2023-10-13T11:10:32;29.42;;;16.05;;
60873;SDS011;46715;40.642;-7.920;2023-10-13T11:12:39;33.88;;;15.90;;
60873;SDS011;46715;40.642;-7.920;2023-10-13T11:14:40;33.50;;;17.17;;
60873;SDS011;46715;40.642;-7.920;2023-10-13T11:16:46;31.83;;;15.57;;
60873;SDS011;46715;40.642;-7.920;2023-10-13T11:19:00;28.10;;;14.88;;
60873;SDS011;46715;40.642;-7.920;2023-10-13T11:23:10;21.48;;;13.65;;
60873;SDS011;46715;40.642;-7.920;2023-10-13T11:25:19;24.40;;;11.65;;
60873;SDS011;46715;40.642;-7.920;2023-10-13T11:27:32;24.83;;;11.48;;
60873;SDS011;46715;40.642;-7.920;2023-10-13T11:29:50;28.52;;;12.38;;
60873;SDS011;46715;40.642;-7.920;2023-10-13T11:31:52;23.95;;;11.70;;
60873;SDS011;46715;40.642;-7.920;2023-10-13T11:34:00;27.15;;;13.15;;
60873;SDS011;46715;40.642;-7.920;2023-10-13T11:36:02;24.27;;;12.07;;
60873;SDS011;46715;40.642;-7.920;2023-10-13T11:40:14;31.48;;;13.88;;
60873;SDS011;46715;40.642;-7.920;2023-10-13T11:42:37;30.48;;;13.30;;
60873;SDS011;46715;40.642;-7.920;2023-10-13T11:44:43;26.80;;;15.00;;
60873;SDS011;46715;40.642;-7.920;2023-10-13T11:46:44;28.42;;;14.43;;
60873;SDS011;46715;40.642;-7.920;2023-10-13T11:48:55;43.72;;;22.17;;
60873;SDS011;46715;40.642;-7.920;2023-10-13T11:50:56;24.13;;;13.75;;
60873;SDS011;46715;40.642;-7.920;2023-10-13T11:52:57;24.70;;;13.47;;
60873;SDS011;46715;40.642;-7.920;2023-10-13T11:54:58;20.42;;;12.20;;
60873;SDS011;46715;40.642;-7.920;2023-10-13T11:56:58;26.98;;;11.35;;
60873;SDS011;46715;40.642;-7.920;2023-10-13T11:58:59;24.65;;;11.13;;
60873;SDS011;46715;40.642;-7.920;2023-10-13T12:01:01;21.95;;;10.73;;
60873;SDS011;46715;40.642;-7.920;2023-10-13T12:03:09;21.25;;;10.85;;
60873;SDS011;46715;40.642;-7.920;2023-10-13T12:05:28;22.35;;;10.63;;
60873;SDS011;46715;40.642;-7.920;2023-10-13T12:07:49;18.10;;;9.90;;
60873;SDS011;46715;40.642;-7.920;2023-10-13T12:09:51;19.83;;;9.27;;
60873;SDS011;46715;40.642;-7.920;2023-10-13T12:12:03;21.00;;;10.27;;
60873;SDS011;46715;40.642;-7.920;2023-10-13T12:14:05;16.05;;;9.45;;
60873;SDS011;46715;40.642;-7.920;2023-10-13T12:16:20;18.30;;;9.48;;
60873;SDS011;46715;40.642;-7.920;2023-10-13T12:18:22;17.80;;;8.85;;
60873;SDS011;46715;40.642;-7.920;2023-10-13T12:22:32;13.07;;;5.85;;
60873;SDS011;46715;40.642;-7.920;2023-10-13T12:24:38;14.05;;;7.93;;
60873;SDS011;46715;40.642;-7.920;2023-10-13T12:26:39;12.83;;;7.27;;
60873;SDS011;46715;40.642;-7.920;2023-10-13T12:28:43;16.45;;;7.20;;
60873;SDS011;46715;40.642;-7.920;2023-10-13T12:30:54;17.52;;;7.10;;
60873;SDS011;46715;40.642;-7.920;2023-10-13T12:33:13;15.15;;;6.25;;
60873;SDS011;46715;40.642;-7.920;2023-10-13T12:35:35;14.95;;;7.85;;
60873;SDS011;46715;40.642;-7.920;2023-10-13T12:37:45;18.47;;;7.60;;
60873;SDS011;46715;40.642;-7.920;2023-10-13T12:39:46;22.42;;;10.45;;
60873;SDS011;46715;40.642;-7.920;2023-10-13T12:42:05;17.95;;;11.80;;
60873;SDS011;46715;40.642;-7.920;2023-10-13T12:44:25;14.85;;;6.78;;
60873;SDS011;46715;40.642;-7.920;2023-10-13T12:46:45;22.83;;;10.05;;
60873;SDS011;46715;40.642;-7.920;2023-10-13T12:49:04;14.70;;;9.05;;
60873;SDS011;46715;40.642;-7.920;2023-10-13T12:51:16;13.88;;;7.00;;
60873;SDS011;46715;40.642;-7.920;2023-10-13T12:53:35;14.35;;;6.50;;
60873;SDS011;46715;40.642;-7.920;2023-10-13T12:55:39;15.18;;;7.03;;
60873;SDS011;46715;40.642;-7.920;2023-10-13T12:57:40;27.52;;;19.52;;
60873;SDS011;46715;40.642;-7.920;2023-10-13T12:59:44;16.85;;;7.40;;
60873;SDS011;46715;40.642;-7.920;2023-10-13T13:01:45;14.20;;;6.63;;
60873;SDS011;46715;40.642;-7.920;2023-10-13T13:03:54;16.33;;;6.97;;